createdAt,value
2018-05-13T00:00:40.802Z,50.23
2018-05-13T00:03:07.283Z,50.30
2018-05-13T00:05:33.678Z,50.17
2018-05-13T00:08:00.048Z,50.13
2018-05-13T00:10:26.477Z,50.14
2018-05-13T00:12:52.835Z,50.15
2018-05-13T00:15:19.198Z,50.28
2018-05-13T00:17:45.575Z,50.27
2018-05-13T00:20:11.976Z,50.39
2018-05-13T00:22:38.402Z,50.43
2018-05-13T00:25:04.805Z,50.34
2018-05-13T00:27:31.201Z,50.50
2018-05-13T00:29:57.571Z,50.43
2018-05-13T00:32:23.962Z,50.55
2018-05-13T00:34:50.361Z,50.56
2018-05-13T00:37:16.783Z,50.56
2018-05-13T00:39:43.226Z,50.36
2018-05-13T00:42:09.602Z,50.61
2018-05-13T00:44:35.974Z,50.56
2018-05-13T00:47:02.387Z,50.59
2018-05-13T00:49:28.743Z,50.69
2018-05-13T00:51:55.107Z,50.63
2018-05-13T00:54:21.507Z,50.61
2018-05-13T00:56:47.876Z,50.63
2018-05-13T00:59:14.251Z,50.59
2018-05-13T01:01:40.703Z,50.55
2018-05-13T01:04:07.119Z,50.68
2018-05-13T01:06:33.487Z,50.52
2018-05-13T01:08:59.893Z,50.53
2018-05-13T01:11:26.277Z,50.73
2018-05-13T01:13:52.647Z,50.70
2018-05-13T01:16:19.018Z,50.76
2018-05-13T01:18:45.399Z,50.65
2018-05-13T01:21:11.862Z,50.56
2018-05-13T01:23:38.263Z,50.58
2018-05-13T01:26:04.659Z,50.79
2018-05-13T01:28:31.068Z,50.73
2018-05-13T01:30:57.454Z,50.77
2018-05-13T01:33:23.840Z,50.62
2018-05-13T01:35:50.194Z,50.55
2018-05-13T01:38:16.577Z,50.63
2018-05-13T01:40:42.942Z,50.64
2018-05-13T01:43:09.312Z,50.53
2018-05-13T01:45:35.670Z,50.60
2018-05-13T01:48:02.057Z,50.66
2018-05-13T01:50:28.436Z,50.47
2018-05-13T01:52:54.884Z,50.50
2018-05-13T01:55:21.291Z,50.54
2018-05-13T01:57:47.717Z,50.47
2018-05-13T02:00:14.254Z,50.43
2018-05-13T02:02:40.936Z,50.56
2018-05-13T02:05:07.494Z,50.54
2018-05-13T02:07:33.872Z,50.52
2018-05-13T02:10:00.354Z,50.21
2018-05-13T02:12:26.893Z,50.36
2018-05-13T02:14:53.366Z,50.44
2018-05-13T02:17:19.792Z,50.37
2018-05-13T02:19:46.195Z,50.43
2018-05-13T02:22:12.635Z,50.25
2018-05-13T02:24:39.059Z,50.23
2018-05-13T02:27:05.459Z,50.39
2018-05-13T02:29:31.802Z,50.46
2018-05-13T02:31:58.225Z,50.31
2018-05-13T02:34:24.707Z,50.30
2018-05-13T02:36:51.094Z,50.59
2018-05-13T02:39:17.530Z,50.36
2018-05-13T02:41:43.906Z,50.41
2018-05-13T02:44:10.506Z,50.47
2018-05-13T02:46:36.893Z,50.52
2018-05-13T02:49:03.241Z,50.48
2018-05-13T02:51:29.612Z,50.29
2018-05-13T02:53:55.977Z,50.37
2018-05-13T02:56:22.425Z,50.43
2018-05-13T02:58:48.796Z,50.34
2018-05-13T03:01:15.144Z,50.55
2018-05-13T03:03:41.650Z,50.40
2018-05-13T03:06:08.024Z,50.33
2018-05-13T03:08:34.436Z,50.46
2018-05-13T03:11:00.798Z,50.46
2018-05-13T03:13:27.197Z,50.21
2018-05-13T03:15:53.552Z,50.30
2018-05-13T03:18:19.875Z,50.33
2018-05-13T03:20:46.298Z,50.09
2018-05-13T03:23:12.756Z,50.09
2018-05-13T03:25:39.082Z,50.14
2018-05-13T03:28:05.446Z,49.85
2018-05-13T03:30:31.859Z,50.15
2018-05-13T03:32:59.250Z,50.04
2018-05-13T03:35:25.739Z,49.95
2018-05-13T03:37:52.096Z,49.76
2018-05-13T03:40:18.433Z,49.88
2018-05-13T03:42:44.849Z,49.68
2018-05-13T03:45:11.276Z,49.41
2018-05-13T03:47:37.718Z,49.47
2018-05-13T03:50:04.064Z,49.39
2018-05-13T03:52:30.462Z,49.02
2018-05-13T03:54:56.868Z,49.22
2018-05-13T03:57:23.299Z,49.07
2018-05-13T03:59:49.709Z,49.05
2018-05-13T04:02:16.066Z,48.86
2018-05-13T04:04:42.597Z,48.53
2018-05-13T04:07:08.965Z,48.45
2018-05-13T04:09:35.524Z,48.21
2018-05-13T04:12:01.946Z,48.16
2018-05-13T04:14:28.328Z,47.88
2018-05-13T04:16:54.752Z,47.88
2018-05-13T04:19:21.065Z,47.73
2018-05-13T04:21:47.500Z,47.74
2018-05-13T04:24:13.960Z,47.67
2018-05-13T04:26:40.458Z,47.56
2018-05-13T04:29:06.803Z,47.61
2018-05-13T04:31:33.173Z,47.52
2018-05-13T04:33:59.510Z,47.41
2018-05-13T04:36:25.945Z,47.34
2018-05-13T04:38:52.271Z,47.26
2018-05-13T04:41:18.604Z,47.22
2018-05-13T04:43:45.051Z,47.09
2018-05-13T04:46:11.410Z,47.12
2018-05-13T04:48:37.768Z,47.07
2018-05-13T04:51:04.112Z,47.09
2018-05-13T04:53:30.575Z,47.08
2018-05-13T04:55:56.946Z,47.10
2018-05-13T04:58:23.348Z,47.12
2018-05-13T05:00:49.756Z,47.09
2018-05-13T05:03:16.078Z,47.07
2018-05-13T05:05:42.437Z,47.02
2018-05-13T05:08:08.865Z,46.92
2018-05-13T05:10:35.240Z,46.96
2018-05-13T05:13:01.585Z,46.99
2018-05-13T05:15:27.907Z,46.90
2018-05-13T05:17:54.261Z,46.96
2018-05-13T05:20:20.800Z,46.95
2018-05-13T05:22:47.183Z,46.96
2018-05-13T05:25:13.596Z,46.97
2018-05-13T05:27:39.975Z,46.96
2018-05-13T05:30:06.450Z,47.00
2018-05-13T05:32:32.838Z,47.01
2018-05-13T05:34:59.184Z,47.03
2018-05-13T05:37:25.505Z,47.07
2018-05-13T05:39:51.837Z,47.09
2018-05-13T05:42:18.218Z,47.08
2018-05-13T05:44:44.555Z,47.10
2018-05-13T05:47:11.025Z,47.09
2018-05-13T05:49:37.377Z,47.11
2018-05-13T05:52:03.756Z,47.14
2018-05-13T05:54:30.251Z,47.20
2018-05-13T05:59:29.042Z,47.19
2018-05-13T06:01:55.412Z,47.31
2018-05-13T06:04:21.753Z,47.30
2018-05-13T06:06:48.111Z,47.31
2018-05-13T06:09:14.444Z,47.31
2018-05-13T06:11:40.853Z,47.28
2018-05-13T06:14:07.234Z,47.34
2018-05-13T06:16:33.553Z,47.31
2018-05-13T06:18:59.889Z,47.37
2018-05-13T06:21:26.345Z,47.37
2018-05-13T06:23:52.722Z,47.31
2018-05-13T06:26:19.082Z,47.30
2018-05-13T06:28:45.415Z,47.28
2018-05-13T06:31:11.960Z,47.30
2018-05-13T06:33:38.371Z,47.23
2018-05-13T06:36:04.780Z,47.24
2018-05-13T06:38:31.127Z,47.22
2018-05-13T06:40:57.496Z,47.19
2018-05-13T06:43:23.830Z,47.16
2018-05-13T06:45:50.160Z,47.09
2018-05-13T06:48:16.492Z,46.99
2018-05-13T06:50:42.927Z,46.95
2018-05-13T06:53:09.248Z,46.98
2018-05-13T06:55:35.681Z,46.95
2018-05-13T06:58:02.044Z,47.00
2018-05-13T07:00:28.420Z,47.01
2018-05-13T07:02:54.908Z,46.99
2018-05-13T07:05:21.216Z,46.99
2018-05-13T07:07:47.549Z,46.96
2018-05-13T07:10:13.900Z,46.95
2018-05-13T07:12:40.301Z,46.92
2018-05-13T07:15:06.747Z,46.92
2018-05-13T07:17:33.108Z,46.93
2018-05-13T07:19:59.608Z,46.85
2018-05-13T07:22:25.965Z,46.83
2018-05-13T07:24:52.300Z,46.83
2018-05-13T07:27:18.700Z,46.80
2018-05-13T07:29:45.177Z,46.75
2018-05-13T07:32:11.708Z,46.73
2018-05-13T07:34:38.188Z,46.63
2018-05-13T07:37:04.694Z,46.60
2018-05-13T07:39:31.020Z,46.55
2018-05-13T07:41:57.590Z,46.46
2018-05-13T07:44:23.964Z,46.39
2018-05-13T07:46:50.352Z,46.41
2018-05-13T07:49:16.755Z,46.39
2018-05-13T07:51:43.152Z,46.25
2018-05-13T07:54:09.516Z,46.15
2018-05-13T07:56:35.948Z,46.08
2018-05-13T07:59:02.292Z,46.09
2018-05-13T08:01:28.630Z,45.90
2018-05-13T08:03:55.060Z,45.86
2018-05-13T08:06:21.451Z,45.72
2018-05-13T08:08:47.821Z,45.63
2018-05-13T08:11:14.144Z,45.52
2018-05-13T08:13:40.570Z,45.49
2018-05-13T08:16:07.128Z,45.51
2018-05-13T08:18:33.465Z,45.50
2018-05-13T08:20:59.852Z,45.37
2018-05-13T08:23:26.256Z,45.30
2018-05-13T08:25:52.713Z,45.32
2018-05-13T08:28:19.042Z,45.20
2018-05-13T08:30:45.568Z,45.16
2018-05-13T08:33:11.907Z,45.10
2018-05-13T08:35:38.312Z,45.07
2018-05-13T08:38:04.688Z,45.03
2018-05-13T08:40:31.137Z,44.93
2018-05-13T08:42:57.621Z,44.90
2018-05-13T08:45:24.050Z,44.89
2018-05-13T08:47:50.405Z,44.92
2018-05-13T08:50:16.900Z,44.86
2018-05-13T08:52:43.252Z,44.83
2018-05-13T08:55:09.651Z,44.81
2018-05-13T08:57:36.037Z,44.74
2018-05-13T09:00:02.414Z,44.66
2018-05-13T09:02:28.845Z,44.69
2018-05-13T09:04:55.267Z,44.60
2018-05-13T09:07:21.737Z,44.57
2018-05-13T09:09:48.105Z,44.56
2018-05-13T09:12:14.481Z,44.54
2018-05-13T09:14:40.947Z,44.48
2018-05-13T09:17:07.369Z,44.50
2018-05-13T09:19:33.764Z,44.51
2018-05-13T09:22:00.152Z,44.41
2018-05-13T09:24:26.574Z,44.39
2018-05-13T09:26:52.988Z,44.32
2018-05-13T09:29:19.336Z,44.38
2018-05-13T09:31:45.821Z,44.35
2018-05-13T09:34:12.261Z,44.41
2018-05-13T09:36:38.611Z,44.39
2018-05-13T09:39:05.013Z,44.44
2018-05-13T09:41:31.358Z,44.28
2018-05-13T09:43:57.717Z,44.25
2018-05-13T09:46:24.049Z,44.22
2018-05-13T09:48:50.379Z,44.23
2018-05-13T09:51:16.751Z,44.19
2018-05-13T09:53:43.089Z,44.24
2018-05-13T09:56:09.469Z,44.25
2018-05-13T09:58:35.811Z,44.26
2018-05-13T10:01:02.172Z,44.31
2018-05-13T10:03:28.497Z,44.35
2018-05-13T10:05:54.861Z,44.36
2018-05-13T10:08:21.227Z,44.23
2018-05-13T10:10:47.580Z,44.38
2018-05-13T10:13:13.967Z,44.39
2018-05-13T10:15:40.386Z,44.32
2018-05-13T10:18:06.753Z,44.28
2018-05-13T10:20:33.093Z,44.25
2018-05-13T10:22:59.459Z,44.26
2018-05-13T10:25:25.880Z,44.23
2018-05-13T10:27:52.231Z,44.32
2018-05-13T10:30:18.557Z,44.35
2018-05-13T10:32:44.942Z,44.33
2018-05-13T10:35:11.348Z,44.42
2018-05-13T10:37:37.675Z,44.40
2018-05-13T10:40:04.032Z,44.44
2018-05-13T10:42:30.411Z,44.49
2018-05-13T10:44:56.736Z,44.43
2018-05-13T10:47:23.075Z,44.47
2018-05-13T10:49:49.408Z,44.30
2018-05-13T10:52:15.783Z,44.33
2018-05-13T10:54:42.105Z,44.27
2018-05-13T10:57:08.432Z,44.22
2018-05-13T10:59:34.767Z,44.29
2018-05-13T11:02:01.124Z,44.20
2018-05-13T11:04:27.538Z,44.10
2018-05-13T11:06:53.918Z,44.09
2018-05-13T11:09:20.293Z,44.09
2018-05-13T11:11:46.612Z,44.03
2018-05-13T11:14:12.981Z,43.95
2018-05-13T11:16:39.320Z,43.95
2018-05-13T11:19:05.684Z,43.79
2018-05-13T11:21:32.001Z,43.82
2018-05-13T11:23:58.405Z,43.69
2018-05-13T11:26:24.768Z,43.70
2018-05-13T11:28:51.137Z,43.63
2018-05-13T11:31:17.451Z,43.64
2018-05-13T11:33:43.861Z,43.62
2018-05-13T11:36:10.339Z,43.49
2018-05-13T11:38:36.662Z,43.43
2018-05-13T11:41:02.989Z,43.36
2018-05-13T11:43:29.373Z,43.46
2018-05-13T11:45:55.745Z,43.37
2018-05-13T11:48:22.086Z,43.39
2018-05-13T11:50:48.455Z,43.39
2018-05-13T11:53:14.859Z,43.41
2018-05-13T11:55:41.231Z,43.50
2018-05-13T11:58:07.580Z,43.39
2018-05-13T12:00:33.978Z,43.47
2018-05-13T12:03:00.362Z,43.42
2018-05-13T12:05:26.708Z,43.36
2018-05-13T12:07:53.043Z,43.39
2018-05-13T12:10:19.441Z,43.38
2018-05-13T12:12:45.829Z,43.38
2018-05-13T12:15:12.276Z,43.35
2018-05-13T12:17:38.544Z,43.42
2018-05-13T12:20:04.891Z,43.42
2018-05-13T12:22:31.212Z,43.61
2018-05-13T12:24:57.578Z,43.88
2018-05-13T12:27:24.017Z,44.09
2018-05-13T12:29:50.374Z,44.56
2018-05-13T12:32:16.709Z,45.62
2018-05-13T12:34:43.136Z,45.12
2018-05-13T12:37:09.541Z,44.70
2018-05-13T12:39:35.876Z,44.50
2018-05-13T12:42:02.407Z,44.48
2018-05-13T12:44:28.748Z,44.83
2018-05-13T12:46:55.145Z,44.76
2018-05-13T12:49:21.484Z,45.08
2018-05-13T12:51:47.814Z,45.19
2018-05-13T12:54:14.208Z,45.04
2018-05-13T12:56:40.576Z,44.93
2018-05-13T12:59:06.945Z,44.73
2018-05-13T13:01:33.275Z,44.54
2018-05-13T13:03:59.648Z,44.87
2018-05-13T13:06:26.025Z,44.38
2018-05-13T13:08:52.352Z,44.55
2018-05-13T13:11:18.709Z,44.35
2018-05-13T13:13:45.138Z,43.79
2018-05-13T13:16:11.503Z,43.78
2018-05-13T13:18:37.859Z,43.67
2018-05-13T13:21:04.225Z,43.80
2018-05-13T13:23:30.588Z,43.76
2018-05-13T13:25:56.994Z,43.62
2018-05-13T13:28:23.391Z,43.57
2018-05-13T13:30:49.737Z,43.61
2018-05-13T13:33:16.120Z,43.58
2018-05-13T13:35:42.479Z,43.58
2018-05-13T13:38:08.853Z,43.62
2018-05-13T13:40:35.183Z,43.64
2018-05-13T13:43:01.559Z,43.79
2018-05-13T13:45:27.939Z,43.90
2018-05-13T13:47:54.269Z,44.03
2018-05-13T13:50:20.631Z,43.84
2018-05-13T13:52:46.964Z,43.66
2018-05-13T13:55:13.309Z,43.58
2018-05-13T13:57:39.630Z,43.51
2018-05-13T14:00:05.958Z,43.46
2018-05-13T14:02:32.320Z,43.45
2018-05-13T14:04:58.706Z,43.42
2018-05-13T14:07:25.089Z,43.59
2018-05-13T14:09:51.426Z,43.45
2018-05-13T14:12:17.764Z,43.53
2018-05-13T14:14:44.135Z,43.35
2018-05-13T14:17:10.507Z,43.59
2018-05-13T14:19:36.925Z,43.64
2018-05-13T14:22:03.304Z,43.84
2018-05-13T14:24:29.652Z,43.76
2018-05-13T14:26:56.078Z,43.64
2018-05-13T14:29:22.481Z,43.35
2018-05-13T14:31:48.841Z,43.30
2018-05-13T14:34:15.232Z,43.48
2018-05-13T14:36:41.684Z,43.81
2018-05-13T14:39:12.125Z,43.79
2018-05-13T14:41:34.401Z,44.22
2018-05-13T14:44:00.780Z,44.16
2018-05-13T14:46:27.112Z,44.21
2018-05-13T14:48:53.484Z,43.79
2018-05-13T14:51:19.816Z,44.23
2018-05-13T14:53:46.188Z,44.16
2018-05-13T14:56:12.510Z,43.77
2018-05-13T14:58:38.874Z,43.90
2018-05-13T15:03:37.704Z,43.69
2018-05-13T15:06:04.087Z,44.01
2018-05-13T15:08:30.468Z,44.09
2018-05-13T15:10:56.824Z,44.01
2018-05-13T15:13:23.274Z,44.07
2018-05-13T15:15:49.741Z,43.80
2018-05-13T15:18:16.068Z,44.01
2018-05-13T15:20:42.530Z,43.90
2018-05-13T15:23:08.865Z,44.03
2018-05-13T15:25:35.198Z,43.98
2018-05-13T15:28:01.564Z,43.86
2018-05-13T15:30:27.938Z,43.80
2018-05-13T15:32:54.288Z,43.85
2018-05-13T15:35:20.624Z,43.84
2018-05-13T15:37:47.025Z,43.90
2018-05-13T15:40:13.391Z,43.88
2018-05-13T15:42:39.850Z,43.90
2018-05-13T15:45:06.123Z,43.85
2018-05-13T15:47:32.492Z,43.79
2018-05-13T15:49:58.820Z,43.76
2018-05-13T15:52:25.260Z,43.72
2018-05-13T15:54:51.611Z,43.80
2018-05-13T15:57:18.018Z,43.72
2018-05-13T15:59:44.372Z,43.71
2018-05-13T16:02:10.796Z,43.77
2018-05-13T16:04:37.201Z,43.73
2018-05-13T16:07:03.684Z,43.55
2018-05-13T16:09:30.035Z,43.68
2018-05-13T16:11:56.392Z,43.79
2018-05-13T16:14:22.743Z,43.70
2018-05-13T16:16:49.084Z,43.80
2018-05-13T16:19:15.468Z,43.68
2018-05-13T16:21:41.838Z,43.72
2018-05-13T16:24:08.236Z,43.80
2018-05-13T16:26:34.581Z,43.87
2018-05-13T16:29:00.920Z,43.84
2018-05-13T16:31:27.242Z,43.81
2018-05-13T16:33:53.611Z,43.77
2018-05-13T16:36:20.000Z,43.70
2018-05-13T16:38:46.396Z,43.82
2018-05-13T16:41:12.759Z,43.90
2018-05-13T16:43:39.085Z,43.93
2018-05-13T16:46:05.488Z,44.13
2018-05-13T16:48:31.829Z,44.13
2018-05-13T16:50:58.164Z,44.20
2018-05-13T16:53:24.518Z,44.19
2018-05-13T16:55:50.912Z,44.21
2018-05-13T16:58:17.231Z,44.35
2018-05-13T17:00:43.575Z,44.42
2018-05-13T17:03:09.914Z,44.57
2018-05-13T17:05:36.245Z,44.45
2018-05-13T17:08:02.601Z,44.48
2018-05-13T17:10:28.941Z,44.52
2018-05-13T17:12:55.312Z,44.47
2018-05-13T17:15:21.653Z,44.63
2018-05-13T17:17:48.038Z,44.64
2018-05-13T17:20:14.365Z,44.63
2018-05-13T17:22:40.708Z,44.83
2018-05-13T17:25:07.136Z,44.74
2018-05-13T17:27:33.516Z,44.80
2018-05-13T17:29:59.903Z,44.88
2018-05-13T17:32:26.246Z,44.88
2018-05-13T17:34:52.648Z,45.03
2018-05-13T17:37:19.018Z,45.24
2018-05-13T17:39:45.400Z,45.18
2018-05-13T17:42:11.763Z,45.22
2018-05-13T17:44:38.157Z,45.18
2018-05-13T17:47:04.526Z,45.24
2018-05-13T17:49:30.898Z,45.28
2018-05-13T17:51:57.292Z,45.52
2018-05-13T17:54:23.675Z,45.53
2018-05-13T17:56:50.063Z,45.61
2018-05-13T17:59:16.391Z,45.48
2018-05-13T18:01:42.768Z,45.48
2018-05-13T18:04:09.094Z,45.68
2018-05-13T18:06:35.452Z,45.49
2018-05-13T18:09:01.778Z,45.85
2018-05-13T18:11:28.119Z,45.79
2018-05-13T18:13:54.448Z,45.73
2018-05-13T18:16:20.830Z,45.89
2018-05-13T18:18:47.145Z,45.73
2018-05-13T18:21:13.469Z,45.86
2018-05-13T18:23:39.805Z,45.82
2018-05-13T18:26:06.137Z,46.03
2018-05-13T18:28:32.504Z,45.89
2018-05-13T18:30:58.946Z,45.98
2018-05-13T18:33:25.283Z,45.85
2018-05-13T18:35:51.613Z,45.92
2018-05-13T18:38:17.932Z,46.07
2018-05-13T18:40:44.260Z,46.03
2018-05-13T18:43:10.584Z,46.20
2018-05-13T18:45:36.904Z,46.26
2018-05-13T18:48:03.221Z,46.20
2018-05-13T18:50:29.556Z,46.22
2018-05-13T18:52:55.913Z,46.35
2018-05-13T18:55:22.232Z,46.48
2018-05-13T18:57:48.556Z,46.44
2018-05-13T19:00:14.946Z,46.60
2018-05-13T19:02:41.279Z,46.64
2018-05-13T19:05:07.609Z,46.64
2018-05-13T19:07:33.980Z,46.57
2018-05-13T19:10:00.306Z,46.60
2018-05-13T19:12:26.738Z,46.57
2018-05-13T19:14:53.051Z,46.63
2018-05-13T19:17:19.380Z,46.82
2018-05-13T19:19:45.708Z,46.68
2018-05-13T19:22:12.089Z,46.82
2018-05-13T19:24:38.481Z,46.64
2018-05-13T19:27:04.796Z,46.74
2018-05-13T19:29:31.158Z,46.73
2018-05-13T19:31:57.520Z,46.76
2018-05-13T19:34:23.872Z,46.74
2018-05-13T19:36:50.205Z,46.72
2018-05-13T19:39:16.539Z,47.00
2018-05-13T19:41:42.880Z,46.80
2018-05-13T19:44:09.194Z,46.77
2018-05-13T19:46:35.512Z,46.83
2018-05-13T19:49:01.868Z,46.81
2018-05-13T19:51:28.228Z,46.92
2018-05-13T19:53:54.540Z,46.82
2018-05-13T19:56:20.930Z,46.95
2018-05-13T19:58:47.295Z,46.94
2018-05-13T20:01:13.686Z,46.87
2018-05-13T20:03:40.150Z,46.91
2018-05-13T20:06:06.391Z,47.10
2018-05-13T20:08:32.767Z,47.14
2018-05-13T20:10:59.109Z,47.03
2018-05-13T20:13:25.417Z,47.02
2018-05-13T20:15:51.728Z,47.18
2018-05-13T20:18:18.052Z,47.12
2018-05-13T20:20:44.423Z,47.05
2018-05-13T20:23:10.757Z,47.28
2018-05-13T20:25:37.116Z,47.21
2018-05-13T20:28:03.433Z,47.20
2018-05-13T20:30:29.775Z,47.30
2018-05-13T20:32:56.135Z,47.37
2018-05-13T20:35:22.459Z,47.32
2018-05-13T20:37:48.783Z,47.46
2018-05-13T20:40:15.107Z,47.42
2018-05-13T20:42:41.429Z,47.51
2018-05-13T20:45:07.761Z,47.38
2018-05-13T20:47:34.124Z,47.44
2018-05-13T20:50:00.458Z,47.44
2018-05-13T20:52:26.812Z,47.48
2018-05-13T20:54:53.170Z,47.57
2018-05-13T20:57:19.484Z,47.43
2018-05-13T20:59:45.860Z,47.44
2018-05-13T21:02:12.225Z,47.49
2018-05-13T21:04:38.560Z,47.54
2018-05-13T21:07:04.887Z,47.41
2018-05-13T21:09:31.201Z,47.50
2018-05-13T21:11:57.585Z,47.46
2018-05-13T21:14:23.938Z,47.58
2018-05-13T21:16:50.308Z,47.46
2018-05-13T21:19:16.671Z,47.52
2018-05-13T21:21:43.038Z,47.50
2018-05-13T21:24:09.395Z,47.44
2018-05-13T21:26:35.802Z,47.47
2018-05-13T21:29:02.172Z,47.47
2018-05-13T21:31:28.549Z,47.67
2018-05-13T21:33:54.969Z,47.53
2018-05-13T21:36:21.347Z,47.65
2018-05-13T21:38:47.711Z,47.57
2018-05-13T21:41:14.114Z,47.64
2018-05-13T21:43:40.535Z,47.53
2018-05-13T21:46:06.954Z,47.60
2018-05-13T21:48:33.326Z,47.47
2018-05-13T21:50:59.720Z,47.74
2018-05-13T21:53:26.179Z,47.69
2018-05-13T21:55:52.543Z,47.54
2018-05-13T21:58:18.955Z,47.60
2018-05-13T22:00:45.352Z,47.70
2018-05-13T22:03:11.785Z,47.83
2018-05-13T22:05:38.170Z,47.66
2018-05-13T22:08:04.541Z,47.70
2018-05-13T22:10:30.909Z,47.76
2018-05-13T22:12:57.324Z,47.79
2018-05-13T22:15:23.815Z,47.79
2018-05-13T22:17:50.179Z,47.63
2018-05-13T22:20:16.629Z,47.67
2018-05-13T22:22:43.007Z,47.83
2018-05-13T22:25:09.430Z,47.73
2018-05-13T22:27:35.805Z,47.74
2018-05-13T22:30:02.173Z,47.77
2018-05-13T22:32:28.618Z,47.83
2018-05-13T22:34:55.044Z,47.74
2018-05-13T22:37:21.427Z,47.79
2018-05-13T22:39:47.799Z,47.69
2018-05-13T22:42:14.170Z,47.67
2018-05-13T22:44:40.544Z,47.65
2018-05-13T22:47:06.950Z,47.71
2018-05-13T22:49:33.316Z,47.72
2018-05-13T22:51:59.766Z,47.78
2018-05-13T22:54:26.131Z,47.63
2018-05-13T22:56:52.527Z,47.75
2018-05-13T22:59:18.899Z,47.60
2018-05-13T23:01:45.277Z,47.70
2018-05-13T23:04:11.730Z,47.72
2018-05-13T23:06:38.096Z,47.69
2018-05-13T23:09:04.574Z,47.64
2018-05-13T23:11:30.922Z,47.75
2018-05-13T23:13:57.298Z,47.87
2018-05-13T23:16:23.702Z,47.89
2018-05-13T23:18:50.075Z,47.93
2018-05-13T23:21:16.478Z,47.69
2018-05-13T23:23:42.850Z,47.78
2018-05-13T23:26:09.269Z,47.83
2018-05-13T23:28:35.707Z,47.82
2018-05-13T23:31:02.030Z,47.99
2018-05-13T23:33:28.406Z,47.99
2018-05-13T23:35:54.794Z,47.88
2018-05-13T23:38:21.170Z,47.92
2018-05-13T23:40:47.556Z,48.07
2018-05-13T23:43:13.959Z,47.99
2018-05-13T23:45:40.370Z,48.05
2018-05-13T23:48:06.757Z,48.18
2018-05-13T23:50:33.139Z,48.12
2018-05-13T23:52:59.538Z,48.05
2018-05-13T23:55:25.904Z,48.02
2018-05-13T23:57:52.269Z,48.17
